sensor_id;sensor_type;location;lat;lon;timestamp;P1;durP1;ratioP1;P2;durP2;ratioP2
27800;SDS011;15181;49.112;11.930;2022-09-17T00:00:41;8.07;;;6.97;;
27800;SDS011;15181;49.112;11.930;2022-09-17T00:03:08;7.10;;;6.40;;
27800;SDS011;15181;49.112;11.930;2022-09-17T00:05:35;7.30;;;6.70;;
27800;SDS011;15181;49.112;11.930;2022-09-17T00:08:02;7.95;;;7.15;;
27800;SDS011;15181;49.112;11.930;2022-09-17T00:10:30;7.30;;;6.70;;
27800;SDS011;15181;49.112;11.930;2022-09-17T00:12:57;7.10;;;6.40;;
27800;SDS011;15181;49.112;11.930;2022-09-17T00:15:24;8.95;;;7.10;;
27800;SDS011;15181;49.112;11.930;2022-09-17T00:17:53;7.93;;;7.20;;
27800;SDS011;15181;49.112;11.930;2022-09-17T00:20:22;7.90;;;7.22;;
27800;SDS011;15181;49.112;11.930;2022-09-17T00:22:49;8.23;;;7.60;;
27800;SDS011;15181;49.112;11.930;2022-09-17T00:25:15;7.80;;;7.20;;
27800;SDS011;15181;49.112;11.930;2022-09-17T00:27:43;8.13;;;7.43;;
27800;SDS011;15181;49.112;11.930;2022-09-17T00:30:10;7.90;;;7.20;;
27800;SDS011;15181;49.112;11.930;2022-09-17T00:32:38;7.38;;;6.68;;
27800;SDS011;15181;49.112;11.930;2022-09-17T00:35:06;7.70;;;6.90;;
27800;SDS011;15181;49.112;11.930;2022-09-17T00:37:33;7.30;;;6.70;;
27800;SDS011;15181;49.112;11.930;2022-09-17T00:40:00;7.18;;;6.57;;
27800;SDS011;15181;49.112;11.930;2022-09-17T00:42:27;7.65;;;6.90;;
27800;SDS011;15181;49.112;11.930;2022-09-17T00:44:54;7.80;;;7.10;;
27800;SDS011;15181;49.112;11.930;2022-09-17T00:47:27;7.70;;;7.00;;
27800;SDS011;15181;49.112;11.930;2022-09-17T00:49:57;7.90;;;7.20;;
27800;SDS011;15181;49.112;11.930;2022-09-17T00:52:28;8.07;;;7.25;;
27800;SDS011;15181;49.112;11.930;2022-09-17T00:55:00;8.32;;;7.68;;
27800;SDS011;15181;49.112;11.930;2022-09-17T00:57:32;8.77;;;7.35;;
27800;SDS011;15181;49.112;11.930;2022-09-17T00:59:59;8.10;;;7.35;;
27800;SDS011;15181;49.112;11.930;2022-09-17T01:02:26;7.97;;;7.25;;
27800;SDS011;15181;49.112;11.930;2022-09-17T01:04:53;7.90;;;7.20;;
27800;SDS011;15181;49.112;11.930;2022-09-17T01:07:44;8.10;;;7.10;;
27800;SDS011;15181;49.112;11.930;2022-09-17T01:10:27;7.60;;;6.82;;
27800;SDS011;15181;49.112;11.930;2022-09-17T01:13:04;7.57;;;6.88;;
27800;SDS011;15181;49.112;11.930;2022-09-17T01:15:40;8.18;;;7.38;;
27800;SDS011;15181;49.112;11.930;2022-09-17T01:18:13;7.20;;;6.60;;
27800;SDS011;15181;49.112;11.930;2022-09-17T01:30:14;7.10;;;6.45;;
27800;SDS011;15181;49.112;11.930;2022-09-17T01:32:57;7.00;;;6.43;;
27800;SDS011;15181;49.112;11.930;2022-09-17T01:35:32;6.80;;;6.20;;
27800;SDS011;15181;49.112;11.930;2022-09-17T01:38:05;7.25;;;6.55;;
27800;SDS011;15181;49.112;11.930;2022-09-17T01:40:38;6.93;;;6.25;;
27800;SDS011;15181;49.112;11.930;2022-09-17T01:43:11;8.25;;;6.03;;
27800;SDS011;15181;49.112;11.930;2022-09-17T01:45:48;6.45;;;5.85;;
27800;SDS011;15181;49.112;11.930;2022-09-17T01:48:16;6.63;;;6.03;;
27800;SDS011;15181;49.112;11.930;2022-09-17T01:50:47;6.32;;;5.82;;
27800;SDS011;15181;49.112;11.930;2022-09-17T01:53:18;6.40;;;5.80;;
27800;SDS011;15181;49.112;11.930;2022-09-17T01:55:49;6.78;;;6.00;;
27800;SDS011;15181;49.112;11.930;2022-09-17T01:58:18;6.28;;;5.78;;
27800;SDS011;15181;49.112;11.930;2022-09-17T02:00:52;6.63;;;5.80;;
27800;SDS011;15181;49.112;11.930;2022-09-17T02:03:23;7.43;;;6.63;;
27800;SDS011;15181;49.112;11.930;2022-09-17T02:05:55;7.25;;;6.55;;
27800;SDS011;15181;49.112;11.930;2022-09-17T02:08:26;7.60;;;6.82;;
27800;SDS011;15181;49.112;11.930;2022-09-17T02:10:58;6.97;;;6.35;;
27800;SDS011;15181;49.112;11.930;2022-09-17T02:13:31;8.48;;;6.72;;
27800;SDS011;15181;49.112;11.930;2022-09-17T02:16:06;6.88;;;6.18;;
27800;SDS011;15181;49.112;11.930;2022-09-17T02:18:35;7.38;;;6.53;;
27800;SDS011;15181;49.112;11.930;2022-09-17T02:21:08;7.32;;;6.60;;
27800;SDS011;15181;49.112;11.930;2022-09-17T02:23:42;7.05;;;6.35;;
27800;SDS011;15181;49.112;11.930;2022-09-17T02:26:14;8.93;;;7.05;;
27800;SDS011;15181;49.112;11.930;2022-09-17T02:28:44;7.93;;;7.13;;
27800;SDS011;15181;49.112;11.930;2022-09-17T02:31:16;8.18;;;7.38;;
27800;SDS011;15181;49.112;11.930;2022-09-17T02:33:43;9.60;;;8.73;;
27800;SDS011;15181;49.112;11.930;2022-09-17T02:36:13;8.65;;;7.53;;
27800;SDS011;15181;49.112;11.930;2022-09-17T02:38:42;9.70;;;7.28;;
27800;SDS011;15181;49.112;11.930;2022-09-17T02:41:12;9.32;;;7.60;;
27800;SDS011;15181;49.112;11.930;2022-09-17T02:43:44;7.93;;;7.25;;
27800;SDS011;15181;49.112;11.930;2022-09-17T02:46:32;8.85;;;7.88;;
27800;SDS011;15181;49.112;11.930;2022-09-17T02:49:20;9.82;;;7.95;;
27800;SDS011;15181;49.112;11.930;2022-09-17T02:51:58;8.88;;;7.95;;
27800;SDS011;15181;49.112;11.930;2022-09-17T02:54:33;8.85;;;7.03;;
27800;SDS011;15181;49.112;11.930;2022-09-17T02:57:09;9.68;;;7.40;;
27800;SDS011;15181;49.112;11.930;2022-09-17T02:59:42;9.38;;;7.55;;
27800;SDS011;15181;49.112;11.930;2022-09-17T03:02:17;8.13;;;7.22;;
27800;SDS011;15181;49.112;11.930;2022-09-17T03:04:48;9.93;;;7.72;;
27800;SDS011;15181;49.112;11.930;2022-09-17T03:07:15;8.93;;;7.75;;
27800;SDS011;15181;49.112;11.930;2022-09-17T03:09:44;8.30;;;7.60;;
27800;SDS011;15181;49.112;11.930;2022-09-17T03:12:11;8.20;;;7.40;;
27800;SDS011;15181;49.112;11.930;2022-09-17T03:14:39;9.93;;;8.70;;
27800;SDS011;15181;49.112;11.930;2022-09-17T03:17:05;11.18;;;8.15;;
27800;SDS011;15181;49.112;11.930;2022-09-17T03:19:34;8.60;;;7.80;;
27800;SDS011;15181;49.112;11.930;2022-09-17T03:22:01;7.93;;;7.13;;
27800;SDS011;15181;49.112;11.930;2022-09-17T03:24:27;9.57;;;8.07;;
27800;SDS011;15181;49.112;11.930;2022-09-17T03:26:56;9.27;;;8.13;;
27800;SDS011;15181;49.112;11.930;2022-09-17T03:29:23;9.35;;;8.45;;
27800;SDS011;15181;49.112;11.930;2022-09-17T03:31:49;9.35;;;8.20;;
27800;SDS011;15181;49.112;11.930;2022-09-17T03:34:16;10.77;;;8.43;;
27800;SDS011;15181;49.112;11.930;2022-09-17T03:36:44;10.43;;;8.57;;
27800;SDS011;15181;49.112;11.930;2022-09-17T03:39:11;10.35;;;9.02;;
27800;SDS011;15181;49.112;11.930;2022-09-17T03:41:38;10.27;;;9.02;;
27800;SDS011;15181;49.112;11.930;2022-09-17T03:44:05;10.70;;;8.75;;
27800;SDS011;15181;49.112;11.930;2022-09-17T03:46:33;10.00;;;8.20;;
27800;SDS011;15181;49.112;11.930;2022-09-17T03:49:00;9.85;;;8.85;;
27800;SDS011;15181;49.112;11.930;2022-09-17T03:51:27;9.65;;;8.52;;
27800;SDS011;15181;49.112;11.930;2022-09-17T03:53:55;9.77;;;8.25;;
27800;SDS011;15181;49.112;11.930;2022-09-17T03:56:22;9.65;;;8.75;;
27800;SDS011;15181;49.112;11.930;2022-09-17T03:58:50;9.73;;;8.70;;
27800;SDS011;15181;49.112;11.930;2022-09-17T04:01:17;9.40;;;8.50;;
27800;SDS011;15181;49.112;11.930;2022-09-17T04:03:44;10.68;;;9.07;;
27800;SDS011;15181;49.112;11.930;2022-09-17T04:06:11;9.05;;;8.18;;
27800;SDS011;15181;49.112;11.930;2022-09-17T04:08:38;13.18;;;9.43;;
27800;SDS011;15181;49.112;11.930;2022-09-17T04:11:06;9.20;;;8.32;;
27800;SDS011;15181;49.112;11.930;2022-09-17T04:13:33;9.48;;;8.57;;
27800;SDS011;15181;49.112;11.930;2022-09-17T04:15:59;9.85;;;8.85;;
27800;SDS011;15181;49.112;11.930;2022-09-17T04:18:27;9.55;;;8.75;;
27800;SDS011;15181;49.112;11.930;2022-09-17T04:20:53;9.35;;;8.45;;
27800;SDS011;15181;49.112;11.930;2022-09-17T04:23:20;9.30;;;8.30;;
27800;SDS011;15181;49.112;11.930;2022-09-17T04:25:47;9.13;;;8.20;;
27800;SDS011;15181;49.112;11.930;2022-09-17T04:28:15;10.10;;;8.43;;
27800;SDS011;15181;49.112;11.930;2022-09-17T04:30:42;10.45;;;8.60;;
27800;SDS011;15181;49.112;11.930;2022-09-17T04:33:09;10.15;;;8.52;;
27800;SDS011;15181;49.112;11.930;2022-09-17T04:35:36;10.77;;;8.18;;
27800;SDS011;15181;49.112;11.930;2022-09-17T04:38:03;9.68;;;8.70;;
27800;SDS011;15181;49.112;11.930;2022-09-17T04:40:30;8.85;;;7.75;;
27800;SDS011;15181;49.112;11.930;2022-09-17T04:42:57;9.48;;;8.43;;
27800;SDS011;15181;49.112;11.930;2022-09-17T04:45:28;9.98;;;8.07;;
27800;SDS011;15181;49.112;11.930;2022-09-17T04:47:57;12.15;;;7.97;;
27800;SDS011;15181;49.112;11.930;2022-09-17T04:50:24;8.63;;;7.78;;
27800;SDS011;15181;49.112;11.930;2022-09-17T04:52:52;11.70;;;8.40;;
27800;SDS011;15181;49.112;11.930;2022-09-17T04:55:19;9.75;;;7.63;;
27800;SDS011;15181;49.112;11.930;2022-09-17T04:57:46;8.02;;;7.18;;
27800;SDS011;15181;49.112;11.930;2022-09-17T05:00:13;9.63;;;7.55;;
27800;SDS011;15181;49.112;11.930;2022-09-17T05:02:44;12.05;;;8.65;;
27800;SDS011;15181;49.112;11.930;2022-09-17T05:05:12;9.85;;;8.10;;
27800;SDS011;15181;49.112;11.930;2022-09-17T05:07:39;10.23;;;8.25;;
27800;SDS011;15181;49.112;11.930;2022-09-17T05:10:07;9.43;;;8.00;;
27800;SDS011;15181;49.112;11.930;2022-09-17T05:12:34;8.38;;;7.68;;
27800;SDS011;15181;49.112;11.930;2022-09-17T05:15:02;10.52;;;7.90;;
27800;SDS011;15181;49.112;11.930;2022-09-17T05:17:30;8.65;;;7.85;;
27800;SDS011;15181;49.112;11.930;2022-09-17T05:19:58;9.32;;;7.70;;
27800;SDS011;15181;49.112;11.930;2022-09-17T05:22:25;8.68;;;7.78;;
27800;SDS011;15181;49.112;11.930;2022-09-17T05:24:52;11.98;;;7.80;;
27800;SDS011;15181;49.112;11.930;2022-09-17T05:27:19;10.07;;;7.28;;
27800;SDS011;15181;49.112;11.930;2022-09-17T05:29:46;10.85;;;7.82;;
27800;SDS011;15181;49.112;11.930;2022-09-17T05:32:12;8.23;;;7.40;;
27800;SDS011;15181;49.112;11.930;2022-09-17T05:34:39;10.85;;;7.65;;
27800;SDS011;15181;49.112;11.930;2022-09-17T05:37:09;10.88;;;7.70;;
27800;SDS011;15181;49.112;11.930;2022-09-17T05:39:36;9.07;;;8.05;;
27800;SDS011;15181;49.112;11.930;2022-09-17T05:42:02;9.50;;;7.60;;
27800;SDS011;15181;49.112;11.930;2022-09-17T05:44:29;9.48;;;7.43;;
27800;SDS011;15181;49.112;11.930;2022-09-17T05:46:56;9.68;;;7.60;;
27800;SDS011;15181;49.112;11.930;2022-09-17T05:49:23;10.23;;;7.30;;
27800;SDS011;15181;49.112;11.930;2022-09-17T05:51:50;8.20;;;7.30;;
27800;SDS011;15181;49.112;11.930;2022-09-17T05:54:18;10.07;;;8.35;;
27800;SDS011;15181;49.112;11.930;2022-09-17T05:56:45;8.48;;;7.60;;
27800;SDS011;15181;49.112;11.930;2022-09-17T05:59:11;9.70;;;7.65;;
27800;SDS011;15181;49.112;11.930;2022-09-17T06:01:39;10.23;;;7.93;;
27800;SDS011;15181;49.112;11.930;2022-09-17T06:04:06;9.45;;;7.00;;
27800;SDS011;15181;49.112;11.930;2022-09-17T06:06:34;14.40;;;7.82;;
27800;SDS011;15181;49.112;11.930;2022-09-17T06:09:01;10.27;;;7.57;;
27800;SDS011;15181;49.112;11.930;2022-09-17T06:11:30;10.00;;;7.82;;
27800;SDS011;15181;49.112;11.930;2022-09-17T06:13:57;8.43;;;7.10;;
27800;SDS011;15181;49.112;11.930;2022-09-17T06:16:24;8.35;;;7.50;;
27800;SDS011;15181;49.112;11.930;2022-09-17T06:18:51;7.70;;;7.00;;
27800;SDS011;15181;49.112;11.930;2022-09-17T06:21:18;9.32;;;7.82;;
27800;SDS011;15181;49.112;11.930;2022-09-17T06:23:47;11.57;;;7.32;;
27800;SDS011;15181;49.112;11.930;2022-09-17T06:26:14;8.23;;;6.90;;
27800;SDS011;15181;49.112;11.930;2022-09-17T06:28:42;8.02;;;7.18;;
27800;SDS011;15181;49.112;11.930;2022-09-17T06:31:10;8.68;;;7.38;;
27800;SDS011;15181;49.112;11.930;2022-09-17T06:33:37;9.70;;;7.65;;
27800;SDS011;15181;49.112;11.930;2022-09-17T06:36:05;7.88;;;7.18;;
27800;SDS011;15181;49.112;11.930;2022-09-17T06:38:33;7.90;;;7.10;;
27800;SDS011;15181;49.112;11.930;2022-09-17T06:41:00;9.40;;;7.13;;
27800;SDS011;15181;49.112;11.930;2022-09-17T06:43:28;8.68;;;6.85;;
27800;SDS011;15181;49.112;11.930;2022-09-17T06:45:57;8.82;;;7.22;;
27800;SDS011;15181;49.112;11.930;2022-09-17T06:48:25;9.38;;;6.70;;
27800;SDS011;15181;49.112;11.930;2022-09-17T06:50:53;8.05;;;6.68;;
27800;SDS011;15181;49.112;11.930;2022-09-17T06:53:21;6.70;;;6.07;;
27800;SDS011;15181;49.112;11.930;2022-09-17T06:55:48;8.82;;;6.40;;
27800;SDS011;15181;49.112;11.930;2022-09-17T06:58:15;9.80;;;6.40;;
27800;SDS011;15181;49.112;11.930;2022-09-17T07:00:42;7.55;;;6.20;;
27800;SDS011;15181;49.112;11.930;2022-09-17T07:03:10;10.15;;;6.75;;
27800;SDS011;15181;49.112;11.930;2022-09-17T07:05:37;7.35;;;6.70;;
27800;SDS011;15181;49.112;11.930;2022-09-17T07:08:04;6.78;;;6.18;;
27800;SDS011;15181;49.112;11.930;2022-09-17T07:10:31;8.70;;;6.50;;
27800;SDS011;15181;49.112;11.930;2022-09-17T07:12:57;8.88;;;6.22;;
27800;SDS011;15181;49.112;11.930;2022-09-17T07:15:24;7.00;;;6.28;;
27800;SDS011;15181;49.112;11.930;2022-09-17T07:17:51;8.05;;;6.25;;
27800;SDS011;15181;49.112;11.930;2022-09-17T07:20:19;14.30;;;7.38;;
27800;SDS011;15181;49.112;11.930;2022-09-17T07:22:53;7.28;;;6.40;;
27800;SDS011;15181;49.112;11.930;2022-09-17T07:25:21;6.97;;;5.90;;
27800;SDS011;15181;49.112;11.930;2022-09-17T07:27:48;6.63;;;5.95;;
27800;SDS011;15181;49.112;11.930;2022-09-17T07:30:15;6.85;;;5.82;;
27800;SDS011;15181;49.112;11.930;2022-09-17T07:32:42;6.45;;;5.85;;
27800;SDS011;15181;49.112;11.930;2022-09-17T07:35:09;6.30;;;5.70;;
27800;SDS011;15181;49.112;11.930;2022-09-17T07:37:37;6.63;;;6.03;;
27800;SDS011;15181;49.112;11.930;2022-09-17T07:40:05;6.18;;;5.68;;
27800;SDS011;15181;49.112;11.930;2022-09-17T07:42:33;6.07;;;5.57;;
27800;SDS011;15181;49.112;11.930;2022-09-17T07:45:00;6.38;;;5.78;;
27800;SDS011;15181;49.112;11.930;2022-09-17T07:47:27;6.05;;;5.55;;
27800;SDS011;15181;49.112;11.930;2022-09-17T07:49:54;6.28;;;5.63;;
27800;SDS011;15181;49.112;11.930;2022-09-17T07:52:20;6.07;;;5.57;;
27800;SDS011;15181;49.112;11.930;2022-09-17T07:54:48;6.00;;;5.50;;
27800;SDS011;15181;49.112;11.930;2022-09-17T07:57:15;5.63;;;5.13;;
27800;SDS011;15181;49.112;11.930;2022-09-17T07:59:42;5.80;;;5.40;;
27800;SDS011;15181;49.112;11.930;2022-09-17T08:02:10;6.05;;;5.40;;
27800;SDS011;15181;49.112;11.930;2022-09-17T08:04:38;5.80;;;5.30;;
27800;SDS011;15181;49.112;11.930;2022-09-17T08:07:09;5.45;;;4.95;;
27800;SDS011;15181;49.112;11.930;2022-09-17T08:09:37;6.30;;;5.70;;
27800;SDS011;15181;49.112;11.930;2022-09-17T08:12:06;5.88;;;5.35;;
27800;SDS011;15181;49.112;11.930;2022-09-17T08:14:33;6.18;;;5.57;;
27800;SDS011;15181;49.112;11.930;2022-09-17T08:17:00;5.32;;;4.93;;
27800;SDS011;15181;49.112;11.930;2022-09-17T08:19:29;5.57;;;5.07;;
27800;SDS011;15181;49.112;11.930;2022-09-17T08:21:56;5.43;;;4.90;;
27800;SDS011;15181;49.112;11.930;2022-09-17T08:24:23;5.50;;;5.00;;
27800;SDS011;15181;49.112;11.930;2022-09-17T08:26:50;5.50;;;5.00;;
27800;SDS011;15181;49.112;11.930;2022-09-17T08:29:18;6.07;;;5.57;;
27800;SDS011;15181;49.112;11.930;2022-09-17T08:31:45;5.95;;;5.25;;
27800;SDS011;15181;49.112;11.930;2022-09-17T08:34:12;5.65;;;5.15;;
27800;SDS011;15181;49.112;11.930;2022-09-17T08:36:39;5.88;;;5.22;;
27800;SDS011;15181;49.112;11.930;2022-09-17T08:39:06;5.90;;;5.40;;
27800;SDS011;15181;49.112;11.930;2022-09-17T08:41:40;5.70;;;5.30;;
27800;SDS011;15181;49.112;11.930;2022-09-17T08:44:15;7.55;;;5.22;;
27800;SDS011;15181;49.112;11.930;2022-09-17T08:46:49;5.60;;;5.20;;
27800;SDS011;15181;49.112;11.930;2022-09-17T08:49:22;5.50;;;5.10;;
27800;SDS011;15181;49.112;11.930;2022-09-17T08:52:03;5.65;;;5.15;;
27800;SDS011;15181;49.112;11.930;2022-09-17T08:54:55;6.00;;;5.00;;
27800;SDS011;15181;49.112;11.930;2022-09-17T08:57:28;5.35;;;4.95;;
27800;SDS011;15181;49.112;11.930;2022-09-17T09:00:07;5.93;;;5.43;;
27800;SDS011;15181;49.112;11.930;2022-09-17T09:02:43;6.68;;;6.07;;
27800;SDS011;15181;49.112;11.930;2022-09-17T09:05:21;5.47;;;5.00;;
27800;SDS011;15181;49.112;11.930;2022-09-17T09:07:54;5.88;;;5.38;;
27800;SDS011;15181;49.112;11.930;2022-09-17T09:10:26;6.32;;;5.72;;
27800;SDS011;15181;49.112;11.930;2022-09-17T09:12:57;6.40;;;5.80;;
27800;SDS011;15181;49.112;11.930;2022-09-17T09:15:37;6.00;;;5.43;;
27800;SDS011;15181;49.112;11.930;2022-09-17T09:18:12;6.30;;;5.80;;
27800;SDS011;15181;49.112;11.930;2022-09-17T09:20:47;6.75;;;5.80;;
27800;SDS011;15181;49.112;11.930;2022-09-17T09:23:17;6.30;;;5.80;;
27800;SDS011;15181;49.112;11.930;2022-09-17T09:25:50;6.32;;;5.78;;
27800;SDS011;15181;49.112;11.930;2022-09-17T09:28:26;7.03;;;6.43;;
27800;SDS011;15181;49.112;11.930;2022-09-17T09:31:12;6.68;;;6.18;;
27800;SDS011;15181;49.112;11.930;2022-09-17T09:33:50;7.15;;;6.22;;
27800;SDS011;15181;49.112;11.930;2022-09-17T09:36:17;6.50;;;6.00;;
27800;SDS011;15181;49.112;11.930;2022-09-17T09:38:47;6.43;;;5.82;;
27800;SDS011;15181;49.112;11.930;2022-09-17T09:41:23;7.00;;;6.20;;
27800;SDS011;15181;49.112;11.930;2022-09-17T09:43:58;6.53;;;6.03;;
27800;SDS011;15181;49.112;11.930;2022-09-17T09:46:33;6.63;;;6.13;;
27800;SDS011;15181;49.112;11.930;2022-09-17T09:49:16;6.97;;;6.30;;
27800;SDS011;15181;49.112;11.930;2022-09-17T09:51:53;6.80;;;6.18;;
27800;SDS011;15181;49.112;11.930;2022-09-17T09:54:32;6.60;;;6.00;;
27800;SDS011;15181;49.112;11.930;2022-09-17T09:57:09;8.50;;;6.85;;
27800;SDS011;15181;49.112;11.930;2022-09-17T09:59:39;7.63;;;6.55;;
27800;SDS011;15181;49.112;11.930;2022-09-17T10:02:07;7.40;;;6.70;;
27800;SDS011;15181;49.112;11.930;2022-09-17T10:04:34;7.90;;;6.55;;
27800;SDS011;15181;49.112;11.930;2022-09-17T10:07:02;7.18;;;6.57;;
27800;SDS011;15181;49.112;11.930;2022-09-17T10:09:31;7.80;;;7.00;;
27800;SDS011;15181;49.112;11.930;2022-09-17T10:12:02;9.82;;;6.60;;
27800;SDS011;15181;49.112;11.930;2022-09-17T10:14:31;7.25;;;6.50;;
27800;SDS011;15181;49.112;11.930;2022-09-17T10:17:17;7.25;;;6.57;;
27800;SDS011;15181;49.112;11.930;2022-09-17T10:19:46;10.48;;;7.20;;
27800;SDS011;15181;49.112;11.930;2022-09-17T10:22:39;8.02;;;6.95;;
27800;SDS011;15181;49.112;11.930;2022-09-17T10:25:17;7.88;;;7.05;;
27800;SDS011;15181;49.112;11.930;2022-09-17T10:27:52;9.52;;;7.18;;
27800;SDS011;15181;49.112;11.930;2022-09-17T10:30:19;8.02;;;7.22;;
27800;SDS011;15181;49.112;11.930;2022-09-17T10:32:53;9.73;;;7.35;;
27800;SDS011;15181;49.112;11.930;2022-09-17T10:35:40;8.90;;;7.43;;
27800;SDS011;15181;49.112;11.930;2022-09-17T10:38:25;10.50;;;7.35;;
27800;SDS011;15181;49.112;11.930;2022-09-17T10:41:06;10.50;;;8.00;;
27800;SDS011;15181;49.112;11.930;2022-09-17T10:43:35;8.15;;;6.95;;
27800;SDS011;15181;49.112;11.930;2022-09-17T10:46:02;11.23;;;7.68;;
27800;SDS011;15181;49.112;11.930;2022-09-17T10:48:31;10.48;;;7.75;;
27800;SDS011;15181;49.112;11.930;2022-09-17T10:51:03;10.27;;;6.93;;
27800;SDS011;15181;49.112;11.930;2022-09-17T10:53:32;8.45;;;7.38;;
27800;SDS011;15181;49.112;11.930;2022-09-17T10:56:19;9.48;;;7.63;;
27800;SDS011;15181;49.112;11.930;2022-09-17T10:58:53;8.68;;;7.32;;
27800;SDS011;15181;49.112;11.930;2022-09-17T11:01:28;14.02;;;7.35;;
27800;SDS011;15181;49.112;11.930;2022-09-17T11:04:12;10.02;;;7.78;;
27800;SDS011;15181;49.112;11.930;2022-09-17T11:09:46;11.38;;;7.20;;
27800;SDS011;15181;49.112;11.930;2022-09-17T11:12:24;8.95;;;7.50;;
27800;SDS011;15181;49.112;11.930;2022-09-17T11:15:00;9.43;;;7.50;;
27800;SDS011;15181;49.112;11.930;2022-09-17T11:17:46;12.85;;;7.57;;
27800;SDS011;15181;49.112;11.930;2022-09-17T11:20:30;12.87;;;7.70;;
27800;SDS011;15181;49.112;11.930;2022-09-17T11:23:15;10.80;;;7.93;;
27800;SDS011;15181;49.112;11.930;2022-09-17T11:25:56;9.02;;;8.18;;
27800;SDS011;15181;49.112;11.930;2022-09-17T11:28:30;8.80;;;7.90;;
27800;SDS011;15181;49.112;11.930;2022-09-17T11:31:11;12.10;;;8.18;;
27800;SDS011;15181;49.112;11.930;2022-09-17T11:33:50;10.57;;;7.65;;
27800;SDS011;15181;49.112;11.930;2022-09-17T11:36:26;8.85;;;7.63;;
27800;SDS011;15181;49.112;11.930;2022-09-17T11:38:56;10.20;;;7.88;;
27800;SDS011;15181;49.112;11.930;2022-09-17T11:41:34;15.93;;;8.35;;
27800;SDS011;15181;49.112;11.930;2022-09-17T11:44:07;10.23;;;7.72;;
27800;SDS011;15181;49.112;11.930;2022-09-17T11:46:39;11.52;;;8.10;;
27800;SDS011;15181;49.112;11.930;2022-09-17T11:49:09;11.10;;;8.30;;
27800;SDS011;15181;49.112;11.930;2022-09-17T11:51:44;9.32;;;7.97;;
27800;SDS011;15181;49.112;11.930;2022-09-17T11:54:15;8.18;;;7.38;;
27800;SDS011;15181;49.112;11.930;2022-09-17T11:56:49;11.13;;;8.00;;
27800;SDS011;15181;49.112;11.930;2022-09-17T11:59:19;9.00;;;8.00;;
27800;SDS011;15181;49.112;11.930;2022-09-17T12:01:53;10.15;;;8.15;;
27800;SDS011;15181;49.112;11.930;2022-09-17T12:04:28;8.85;;;7.78;;
27800;SDS011;15181;49.112;11.930;2022-09-17T12:07:09;8.82;;;8.00;;
27800;SDS011;15181;49.112;11.930;2022-09-17T12:09:42;9.82;;;8.30;;
27800;SDS011;15181;49.112;11.930;2022-09-17T12:12:14;10.23;;;8.00;;
27800;SDS011;15181;49.112;11.930;2022-09-17T12:14:45;9.68;;;8.10;;
27800;SDS011;15181;49.112;11.930;2022-09-17T12:17:19;9.40;;;7.70;;
27800;SDS011;15181;49.112;11.930;2022-09-17T12:19:49;10.05;;;7.88;;
27800;SDS011;15181;49.112;11.930;2022-09-17T12:22:21;8.60;;;7.68;;
27800;SDS011;15181;49.112;11.930;2022-09-17T12:24:51;9.65;;;8.00;;
27800;SDS011;15181;49.112;11.930;2022-09-17T12:27:21;12.05;;;7.28;;
27800;SDS011;15181;49.112;11.930;2022-09-17T12:33:01;7.90;;;7.10;;
27800;SDS011;15181;49.112;11.930;2022-09-17T12:35:54;9.40;;;7.80;;
27800;SDS011;15181;49.112;11.930;2022-09-17T12:38:46;8.80;;;7.68;;
27800;SDS011;15181;49.112;11.930;2022-09-17T12:41:32;8.30;;;7.28;;
27800;SDS011;15181;49.112;11.930;2022-09-17T12:44:14;9.20;;;7.63;;
27800;SDS011;15181;49.112;11.930;2022-09-17T12:46:57;8.57;;;7.60;;
27800;SDS011;15181;49.112;11.930;2022-09-17T12:49:37;9.68;;;7.60;;
27800;SDS011;15181;49.112;11.930;2022-09-17T12:52:21;9.88;;;7.55;;
27800;SDS011;15181;49.112;11.930;2022-09-17T12:57:57;8.30;;;7.50;;
27800;SDS011;15181;49.112;11.930;2022-09-17T13:00:31;9.35;;;7.63;;
27800;SDS011;15181;49.112;11.930;2022-09-17T13:03:05;7.90;;;7.10;;
27800;SDS011;15181;49.112;11.930;2022-09-17T13:05:43;8.25;;;7.40;;
27800;SDS011;15181;49.112;11.930;2022-09-17T13:08:34;8.20;;;7.38;;
27800;SDS011;15181;49.112;11.930;2022-09-17T13:11:25;7.80;;;7.00;;
27800;SDS011;15181;49.112;11.930;2022-09-17T13:14:11;9.30;;;7.60;;
27800;SDS011;15181;49.112;11.930;2022-09-17T13:16:44;8.60;;;7.80;;
27800;SDS011;15181;49.112;11.930;2022-09-17T13:19:19;8.35;;;7.55;;
27800;SDS011;15181;49.112;11.930;2022-09-17T13:21:58;8.52;;;7.72;;
27800;SDS011;15181;49.112;11.930;2022-09-17T13:24:28;8.93;;;7.85;;
27800;SDS011;15181;49.112;11.930;2022-09-17T13:26:58;8.68;;;7.80;;
27800;SDS011;15181;49.112;11.930;2022-09-17T13:38:15;8.30;;;7.50;;
27800;SDS011;15181;49.112;11.930;2022-09-17T13:40:43;11.23;;;8.20;;
27800;SDS011;15181;49.112;11.930;2022-09-17T13:43:12;8.10;;;7.30;;
27800;SDS011;15181;49.112;11.930;2022-09-17T13:48:43;7.68;;;6.95;;
27800;SDS011;15181;49.112;11.930;2022-09-17T13:54:10;8.32;;;7.40;;
27800;SDS011;15181;49.112;11.930;2022-09-17T13:56:39;8.07;;;7.38;;
27800;SDS011;15181;49.112;11.930;2022-09-17T13:59:11;7.97;;;7.38;;
27800;SDS011;15181;49.112;11.930;2022-09-17T14:02:03;7.88;;;7.28;;
27800;SDS011;15181;49.112;11.930;2022-09-17T14:07:50;8.00;;;7.30;;
27800;SDS011;15181;49.112;11.930;2022-09-17T14:10:35;7.47;;;6.88;;
27800;SDS011;15181;49.112;11.930;2022-09-17T14:19:20;8.10;;;7.40;;
27800;SDS011;15181;49.112;11.930;2022-09-17T14:21:55;7.68;;;7.07;;
27800;SDS011;15181;49.112;11.930;2022-09-17T14:24:25;7.95;;;7.18;;
27800;SDS011;15181;49.112;11.930;2022-09-17T14:26:57;7.85;;;7.22;;
27800;SDS011;15181;49.112;11.930;2022-09-17T14:32:29;8.02;;;7.30;;
27800;SDS011;15181;49.112;11.930;2022-09-17T14:35:03;7.95;;;7.22;;
27800;SDS011;15181;49.112;11.930;2022-09-17T14:37:39;7.78;;;7.18;;
27800;SDS011;15181;49.112;11.930;2022-09-17T14:40:09;7.90;;;7.10;;
27800;SDS011;15181;49.112;11.930;2022-09-17T14:42:39;7.95;;;7.25;;
27800;SDS011;15181;49.112;11.930;2022-09-17T14:45:07;8.70;;;7.82;;
27800;SDS011;15181;49.112;11.930;2022-09-17T14:47:41;8.07;;;7.35;;
27800;SDS011;15181;49.112;11.930;2022-09-17T14:50:23;7.45;;;6.85;;
27800;SDS011;15181;49.112;11.930;2022-09-17T14:52:51;7.70;;;7.07;;
27800;SDS011;15181;49.112;11.930;2022-09-17T14:55:19;7.45;;;6.75;;
27800;SDS011;15181;49.112;11.930;2022-09-17T14:57:48;8.18;;;7.32;;
27800;SDS011;15181;49.112;11.930;2022-09-17T15:00:19;7.20;;;6.60;;
27800;SDS011;15181;49.112;11.930;2022-09-17T15:02:57;7.30;;;6.57;;
27800;SDS011;15181;49.112;11.930;2022-09-17T15:05:26;6.82;;;6.25;;
27800;SDS011;15181;49.112;11.930;2022-09-17T15:08:05;6.88;;;6.28;;
27800;SDS011;15181;49.112;11.930;2022-09-17T15:10:44;6.85;;;6.20;;
27800;SDS011;15181;49.112;11.930;2022-09-17T15:13:14;6.80;;;6.30;;
27800;SDS011;15181;49.112;11.930;2022-09-17T15:15:57;7.20;;;6.60;;
27800;SDS011;15181;49.112;11.930;2022-09-17T15:18:34;6.70;;;6.20;;
27800;SDS011;15181;49.112;11.930;2022-09-17T15:21:05;6.93;;;6.32;;
27800;SDS011;15181;49.112;11.930;2022-09-17T15:23:42;7.00;;;6.40;;
27800;SDS011;15181;49.112;11.930;2022-09-17T15:26:10;6.90;;;6.20;;
27800;SDS011;15181;49.112;11.930;2022-09-17T15:28:39;6.70;;;6.10;;
27800;SDS011;15181;49.112;11.930;2022-09-17T15:31:11;6.55;;;6.00;;
27800;SDS011;15181;49.112;11.930;2022-09-17T15:33:42;6.40;;;5.90;;
27800;SDS011;15181;49.112;11.930;2022-09-17T15:36:14;7.00;;;6.30;;
27800;SDS011;15181;49.112;11.930;2022-09-17T15:38:45;6.50;;;6.00;;
27800;SDS011;15181;49.112;11.930;2022-09-17T15:41:23;6.72;;;6.18;;
27800;SDS011;15181;49.112;11.930;2022-09-17T15:44:04;6.85;;;6.25;;